createdAt,value
2022-08-20T00:02:35.000Z,20.75
2022-08-20T00:07:34.000Z,21.42
2022-08-20T00:12:35.000Z,21.92
2022-08-20T00:17:35.000Z,22.17
2022-08-20T00:22:35.000Z,22.65
2022-08-20T00:27:35.000Z,24.69
2022-08-20T00:32:35.000Z,25.43
2022-08-20T00:37:35.000Z,26.27
2022-08-20T00:42:34.000Z,26.9
2022-08-20T00:47:34.000Z,28.09
2022-08-20T00:52:34.000Z,26.96
2022-08-20T00:57:34.000Z,25.36
2022-08-20T01:02:35.000Z,25.36
2022-08-20T01:07:35.000Z,23.89
2022-08-20T01:12:35.000Z,23.64
2022-08-20T01:17:35.000Z,23.34
2022-08-20T01:22:35.000Z,23.18
2022-08-20T01:27:35.000Z,23.96
2022-08-20T01:32:34.000Z,25.53
2022-08-20T01:37:41.000Z,26.52
2022-08-20T01:42:34.000Z,26.04
2022-08-20T01:52:35.000Z,26.77
2022-08-20T01:57:35.000Z,27.39
2022-08-20T02:02:35.000Z,28.05
2022-08-20T02:07:35.000Z,29.21
2022-08-20T02:12:35.000Z,30.46
2022-08-20T02:17:35.000Z,31.17
2022-08-20T02:22:35.000Z,31.17
2022-08-20T02:27:35.000Z,31.02
2022-08-20T02:32:44.000Z,31.25
2022-08-20T02:37:34.000Z,29.85
2022-08-20T02:42:34.000Z,29.16
2022-08-20T02:47:35.000Z,27.39
2022-08-20T02:52:35.000Z,24.18
2022-08-20T02:57:34.000Z,22.54
2022-08-20T03:02:34.000Z,20.74
2022-08-20T03:07:34.000Z,18.3
2022-08-20T03:12:35.000Z,15.98
2022-08-20T03:17:34.000Z,14.32
2022-08-20T03:22:35.000Z,12.52
2022-08-20T03:27:42.000Z,12.34
2022-08-20T03:32:36.000Z,11.26
2022-08-20T03:37:35.000Z,11.26
2022-08-20T03:42:35.000Z,10.54
2022-08-20T03:47:35.000Z,10
2022-08-20T03:52:35.000Z,9.77
2022-08-20T03:57:35.000Z,9.56
2022-08-20T04:02:35.000Z,9.9
2022-08-20T04:07:34.000Z,9.26
2022-08-20T04:12:37.000Z,9.38
2022-08-20T04:17:35.000Z,9.82
2022-08-20T04:22:35.000Z,9.23
2022-08-20T04:27:35.000Z,9.16
2022-08-20T04:32:36.000Z,10.02
2022-08-20T04:37:34.000Z,11.44
2022-08-20T04:42:34.000Z,12.59
2022-08-20T04:47:45.000Z,12.59
2022-08-20T04:52:34.000Z,12.94
2022-08-20T05:02:35.000Z,11.32
2022-08-20T05:07:35.000Z,11.37
2022-08-20T05:12:35.000Z,10.75
2022-08-20T05:17:34.000Z,10.24
2022-08-20T05:22:41.000Z,9.85
2022-08-20T05:27:35.000Z,9.92
2022-08-20T05:32:35.000Z,9.34
2022-08-20T05:37:35.000Z,9.05
2022-08-20T05:42:35.000Z,8.66
2022-08-20T05:47:35.000Z,8.32
2022-08-20T05:52:35.000Z,8.91
2022-08-20T05:57:35.000Z,8.52
2022-08-20T06:02:35.000Z,8.86
2022-08-20T06:07:34.000Z,8.86
2022-08-20T06:12:34.000Z,8.78
2022-08-20T06:17:35.000Z,8.86
2022-08-20T06:22:37.000Z,8.74
2022-08-20T06:27:34.000Z,8.22
2022-08-20T06:32:42.000Z,8.13
2022-08-20T06:37:41.000Z,7.84
2022-08-20T06:42:35.000Z,8.15
2022-08-20T06:47:35.000Z,8.77
2022-08-20T06:53:03.000Z,8.46
2022-08-20T06:57:35.000Z,8.36
2022-08-20T07:02:40.000Z,8.88
2022-08-20T07:07:38.000Z,9.56
2022-08-20T07:12:35.000Z,8.98
2022-08-20T07:17:34.000Z,8.54
2022-08-20T07:22:34.000Z,8.54
2022-08-20T07:27:34.000Z,8.01
2022-08-20T07:32:39.000Z,8.02
2022-08-20T07:37:35.000Z,9.28
2022-08-20T07:42:34.000Z,9.43
2022-08-20T07:47:34.000Z,9.11
2022-08-20T07:52:35.000Z,8.52
2022-08-20T07:57:35.000Z,8.98
2022-08-20T08:02:35.000Z,8.72
2022-08-20T08:07:35.000Z,8.71
2022-08-20T08:12:36.000Z,7.58
2022-08-20T08:27:35.000Z,9.81
2022-08-20T08:32:35.000Z,10.24
2022-08-20T08:37:40.000Z,11.36
2022-08-20T08:42:35.000Z,10.98
2022-08-20T08:47:35.000Z,11.08
2022-08-20T08:52:37.000Z,11.83
2022-08-20T08:57:35.000Z,13.46
2022-08-20T09:02:34.000Z,13.41
2022-08-20T09:12:35.000Z,14.58
2022-08-20T09:17:35.000Z,15.59
2022-08-20T09:22:35.000Z,15.59
2022-08-20T09:32:36.000Z,13.63
2022-08-20T09:37:34.000Z,13.34
2022-08-20T09:42:35.000Z,12.6
2022-08-20T09:47:35.000Z,12.6
2022-08-20T09:52:35.000Z,12.93
2022-08-20T09:57:35.000Z,12.86
2022-08-20T10:02:35.000Z,12.57
2022-08-20T10:07:35.000Z,13.8
2022-08-20T10:12:35.000Z,11.85
2022-08-20T10:17:35.000Z,13.96
2022-08-20T10:22:35.000Z,14.19
2022-08-20T10:27:35.000Z,12.2
2022-08-20T10:32:35.000Z,12.84
2022-08-20T10:37:35.000Z,11.72
2022-08-20T10:42:34.000Z,12.1
2022-08-20T10:47:35.000Z,11.75
2022-08-20T10:52:35.000Z,9.92
2022-08-20T10:57:34.000Z,9.92
2022-08-20T11:02:35.000Z,10.53
2022-08-20T11:08:05.000Z,11.3
2022-08-20T11:12:34.000Z,10.5
2022-08-20T11:22:34.000Z,8.66
2022-08-20T11:27:35.000Z,10.97
2022-08-20T11:32:35.000Z,10.17
2022-08-20T11:37:35.000Z,8.33
2022-08-20T11:47:35.000Z,6.77
2022-08-20T11:52:37.000Z,6.43
2022-08-20T11:57:35.000Z,7.15
2022-08-20T12:02:39.000Z,7.09
2022-08-20T12:07:35.000Z,6.89
2022-08-20T12:12:34.000Z,6.92
2022-08-20T12:17:35.000Z,9.91
2022-08-20T12:22:35.000Z,7.97
2022-08-20T12:27:34.000Z,7.97
2022-08-20T12:32:34.000Z,8.2
2022-08-20T12:37:35.000Z,7.93
2022-08-20T12:42:35.000Z,7.53
2022-08-20T12:47:35.000Z,7.81
2022-08-20T12:52:35.000Z,7.51
2022-08-20T12:57:35.000Z,7.06
2022-08-20T13:02:34.000Z,7.54
2022-08-20T13:07:37.000Z,8.18
2022-08-20T13:12:35.000Z,7.87
2022-08-20T13:17:49.000Z,7.79
2022-08-20T13:22:35.000Z,8.55
2022-08-20T13:27:34.000Z,9.27
2022-08-20T13:32:35.000Z,10.48
2022-08-20T13:37:36.000Z,10
2022-08-20T13:42:35.000Z,10
2022-08-20T13:47:35.000Z,8.72
2022-08-20T13:52:35.000Z,8.81
2022-08-20T13:57:35.000Z,8.77
2022-08-20T14:02:35.000Z,8.84
2022-08-20T14:07:40.000Z,8.94
2022-08-20T14:12:35.000Z,8.74
2022-08-20T14:17:35.000Z,8.78
2022-08-20T14:22:35.000Z,9.5
2022-08-20T14:27:40.000Z,8.28
2022-08-20T14:32:34.000Z,7.4
2022-08-20T14:37:35.000Z,8.27
2022-08-20T14:42:34.000Z,9.28
2022-08-20T14:47:35.000Z,8.93
2022-08-20T14:57:35.000Z,8.25
2022-08-20T15:02:35.000Z,10.25
2022-08-20T15:07:35.000Z,8.94
2022-08-20T15:12:34.000Z,7.52
2022-08-20T15:17:35.000Z,7.52
2022-08-20T15:22:35.000Z,6.97
2022-08-20T15:27:35.000Z,8.87
2022-08-20T15:32:34.000Z,10.24
2022-08-20T15:37:35.000Z,10.57
2022-08-20T15:42:35.000Z,9.91
2022-08-20T15:47:35.000Z,9.81
2022-08-20T15:52:35.000Z,8.34
2022-08-20T15:57:35.000Z,11.29
2022-08-20T16:02:36.000Z,11.6
2022-08-20T16:07:35.000Z,11.32
2022-08-20T16:12:35.000Z,12.29
2022-08-20T16:17:35.000Z,12.26
2022-08-20T16:22:35.000Z,11.49
2022-08-20T16:27:35.000Z,11.49
2022-08-20T16:32:35.000Z,12.36
2022-08-20T16:37:35.000Z,11.98
2022-08-20T16:42:35.000Z,11.59
2022-08-20T16:47:35.000Z,13.77
2022-08-20T16:52:35.000Z,12.51
2022-08-20T16:57:35.000Z,12.46
2022-08-20T17:02:35.000Z,13.68
2022-08-20T17:12:34.000Z,12.98
2022-08-20T17:17:35.000Z,14.35
2022-08-20T17:22:35.000Z,13.52
2022-08-20T17:27:35.000Z,15.08
2022-08-20T17:32:34.000Z,16.86
2022-08-20T17:37:35.000Z,13.76
2022-08-20T17:42:36.000Z,12.16
2022-08-20T17:47:35.000Z,11.81
2022-08-20T17:52:37.000Z,11.81
2022-08-20T17:57:35.000Z,10.39
2022-08-20T18:02:35.000Z,10.87
2022-08-20T18:07:35.000Z,11.19
2022-08-20T18:12:44.000Z,9.97
2022-08-20T18:17:36.000Z,9.56
2022-08-20T18:22:34.000Z,9.81
2022-08-20T18:27:35.000Z,8.87
2022-08-20T18:32:34.000Z,9.36
2022-08-20T18:37:35.000Z,10.11
2022-08-20T18:42:35.000Z,9.51
2022-08-20T18:47:35.000Z,9.69
2022-08-20T18:52:34.000Z,8.54
2022-08-20T18:57:36.000Z,8.07
2022-08-20T19:02:35.000Z,8.56
2022-08-20T19:07:57.000Z,8.56
2022-08-20T19:12:35.000Z,9.05
2022-08-20T19:17:35.000Z,6.96
2022-08-20T19:22:35.000Z,7.97
2022-08-20T19:27:35.000Z,7.41
2022-08-20T19:32:35.000Z,6.97
2022-08-20T19:37:54.000Z,8.36
2022-08-20T19:42:35.000Z,8.53
2022-08-20T19:47:35.000Z,8.67
2022-08-20T19:52:34.000Z,8.42
2022-08-20T19:57:35.000Z,8.07
2022-08-20T20:02:35.000Z,7.65
2022-08-20T20:07:35.000Z,8.14
2022-08-20T20:12:35.000Z,7.45
2022-08-20T20:17:34.000Z,7.45
2022-08-20T20:22:35.000Z,7.79
2022-08-20T20:27:35.000Z,8.41
2022-08-20T20:32:35.000Z,8.57
2022-08-20T20:37:59.000Z,9.31
2022-08-20T20:42:35.000Z,8.38
2022-08-20T20:47:35.000Z,7.42
2022-08-20T20:52:35.000Z,7.53
2022-08-20T20:57:48.000Z,7.05
2022-08-20T21:02:35.000Z,7.34
2022-08-20T21:07:35.000Z,7.78
2022-08-20T21:12:35.000Z,8.46
2022-08-20T21:17:35.000Z,8.91
2022-08-20T21:27:35.000Z,9.87
2022-08-20T21:32:35.000Z,9.54
2022-08-20T21:37:35.000Z,9.89
2022-08-20T21:42:39.000Z,10.81
2022-08-20T21:47:34.000Z,10.41
2022-08-20T21:52:35.000Z,10.82
2022-08-20T21:57:35.000Z,10.82
2022-08-20T22:02:35.000Z,9.8
2022-08-20T22:07:35.000Z,9.67
2022-08-20T22:12:35.000Z,9.96
2022-08-20T22:17:35.000Z,9.5
2022-08-20T22:22:35.000Z,9.32
2022-08-20T22:27:35.000Z,9.89
2022-08-20T22:33:02.000Z,10.04
2022-08-20T22:37:34.000Z,9.38
2022-08-20T22:42:39.000Z,9.3
2022-08-20T22:47:35.000Z,8.64
2022-08-20T22:52:36.000Z,9.22
2022-08-20T22:57:34.000Z,8.71
2022-08-20T23:07:35.000Z,8.78
2022-08-20T23:12:35.000Z,8.87
2022-08-20T23:17:35.000Z,9.54
2022-08-20T23:22:35.000Z,9.54
2022-08-20T23:27:35.000Z,9.65
2022-08-20T23:32:35.000Z,8.57
2022-08-20T23:37:34.000Z,8.63
2022-08-20T23:42:34.000Z,9.44
2022-08-20T23:47:35.000Z,10.58
2022-08-20T23:52:35.000Z,11.56
2022-08-20T23:57:35.000Z,12.3
